createdAt,value
2023-02-11T05:49:51.672Z,0.95
2023-02-11T05:52:18.257Z,1.01
2023-02-11T05:54:44.769Z,1.14
2023-02-11T05:57:11.596Z,1.26
2023-02-11T05:59:38.974Z,1.34
2023-02-11T06:02:05.481Z,1.36
2023-02-11T06:04:31.944Z,1.40
2023-02-11T06:06:58.488Z,1.25
2023-02-11T06:09:25.128Z,0.94
2023-02-11T06:11:51.681Z,0.86
2023-02-11T06:14:18.482Z,0.52
2023-02-11T06:16:45.511Z,0.68
2023-02-11T06:19:12.744Z,0.63
2023-02-11T06:21:44.125Z,0.68
2023-02-11T06:24:11.481Z,0.72
2023-02-11T06:26:38.016Z,0.65
2023-02-11T06:29:04.583Z,0.49
2023-02-11T06:31:31.251Z,0.53
2023-02-11T06:33:59.186Z,0.53
2023-02-11T06:36:25.725Z,0.59
2023-02-11T06:38:53.034Z,0.76
2023-02-11T06:41:22.818Z,0.68
2023-02-11T06:43:49.619Z,0.75
2023-02-11T06:46:16.321Z,0.85
2023-02-11T06:48:44.868Z,0.58
2023-02-11T06:51:13.302Z,0.65
2023-02-11T06:53:42.643Z,0.52
2023-02-11T06:56:12.680Z,0.73
2023-02-11T06:58:39.304Z,0.75
2023-02-11T07:01:10.971Z,0.92
2023-02-11T07:03:39.816Z,1.00
2023-02-11T07:06:07.994Z,1.05
2023-02-11T07:08:36.037Z,1.17
2023-02-11T07:11:09.668Z,1.22
2023-02-11T07:13:36.251Z,1.25
2023-02-11T07:16:07.465Z,1.20
2023-02-11T07:18:34.250Z,1.42
2023-02-11T07:21:04.687Z,1.55
2023-02-11T07:23:31.634Z,1.64
2023-02-11T07:25:58.169Z,1.60
2023-02-11T07:28:24.797Z,1.90
2023-02-11T07:30:51.341Z,2.27
2023-02-11T07:33:17.831Z,2.30
2023-02-11T07:35:44.297Z,2.82
2023-02-11T07:38:10.772Z,3.29
2023-02-11T07:40:37.228Z,2.96
2023-02-11T07:43:03.721Z,2.52
2023-02-11T07:45:30.255Z,2.28
2023-02-11T07:47:56.743Z,2.53
2023-02-11T07:50:23.265Z,2.59
2023-02-11T07:52:49.783Z,2.53
2023-02-11T07:55:16.372Z,2.61
2023-02-11T07:57:42.938Z,2.78
2023-02-11T08:00:10.353Z,2.80
2023-02-11T08:02:39.497Z,2.94
2023-02-11T08:05:06.372Z,3.37
2023-02-11T08:07:32.859Z,3.18
2023-02-11T08:09:59.490Z,3.45
2023-02-11T08:12:25.994Z,2.96
2023-02-11T08:14:52.468Z,2.98
2023-02-11T08:17:18.993Z,3.10
2023-02-11T08:19:45.528Z,2.83
2023-02-11T08:22:12.494Z,3.18
2023-02-11T08:24:39.028Z,3.34
2023-02-11T08:27:05.616Z,4.21
2023-02-11T08:29:32.100Z,4.03
2023-02-11T08:31:58.630Z,3.46
2023-02-11T08:34:25.358Z,3.77
2023-02-11T08:36:51.953Z,3.58
2023-02-11T08:39:21.314Z,4.08
2023-02-11T08:41:50.258Z,3.86
2023-02-11T08:44:18.591Z,3.55
2023-02-11T08:46:45.797Z,3.47
2023-02-11T08:49:12.533Z,3.63
2023-02-11T08:51:39.057Z,3.45
2023-02-11T08:54:09.431Z,4.34
2023-02-11T08:56:37.448Z,4.17
2023-02-11T08:59:04.391Z,4.18
2023-02-11T09:01:31.914Z,4.03
2023-02-11T09:03:59.231Z,4.08
2023-02-11T09:06:26.824Z,5.04
2023-02-11T09:08:56.356Z,4.70
2023-02-11T09:11:29.389Z,5.28
2023-02-11T09:13:56.204Z,5.35
2023-02-11T09:16:26.279Z,5.36
2023-02-11T09:18:53.629Z,5.60
2023-02-11T09:21:20.323Z,5.62
2023-02-11T09:23:47.771Z,6.75
2023-02-11T09:26:14.353Z,7.06
2023-02-11T09:28:41.120Z,7.00
2023-02-11T09:31:09.959Z,6.95
2023-02-11T09:33:37.876Z,7.04
2023-02-11T09:36:06.083Z,7.04
2023-02-11T09:38:33.254Z,8.29
2023-02-11T09:41:01.634Z,9.69
2023-02-11T09:43:37.509Z,8.46
2023-02-11T09:46:04.998Z,9.24
2023-02-11T09:48:40.102Z,6.98
2023-02-11T09:51:18.230Z,6.32
2023-02-11T09:53:44.791Z,7.40
2023-02-11T09:56:14.121Z,7.38
2023-02-11T09:58:43.307Z,7.07
2023-02-11T10:01:27.700Z,8.31
2023-02-11T10:03:59.069Z,8.54
2023-02-11T10:06:33.172Z,12.55
2023-02-11T10:09:06.773Z,12.10
2023-02-11T10:11:33.328Z,11.10
2023-02-11T10:14:08.855Z,9.74
2023-02-11T10:16:42.562Z,9.07
2023-02-11T10:19:30.743Z,8.84
2023-02-11T10:22:14.727Z,8.15
2023-02-11T10:24:46.114Z,8.19
2023-02-11T10:27:20.158Z,8.12
2023-02-11T10:30:02.703Z,8.87
2023-02-11T10:32:44.157Z,7.71
2023-02-11T10:35:16.228Z,7.93
2023-02-11T10:37:44.530Z,7.71
2023-02-11T10:40:16.730Z,7.40
2023-02-11T10:42:51.981Z,7.37
2023-02-11T10:45:25.990Z,7.58
2023-02-11T10:47:52.938Z,7.41
2023-02-11T10:50:25.966Z,7.58
2023-02-11T10:52:53.034Z,7.55
2023-02-11T10:55:26.575Z,8.11
2023-02-11T10:57:53.005Z,9.28
2023-02-11T11:00:40.541Z,9.60
2023-02-11T11:03:22.837Z,9.16
2023-02-11T11:05:50.843Z,9.27
2023-02-11T11:08:18.467Z,9.12
2023-02-11T11:10:48.321Z,9.16
2023-02-11T11:13:38.502Z,8.87
2023-02-11T11:16:14.231Z,8.61
2023-02-11T11:18:43.742Z,7.68
2023-02-11T11:21:16.442Z,8.05
2023-02-11T11:23:50.448Z,7.84
2023-02-11T11:26:17.861Z,7.84
2023-02-11T11:28:53.602Z,8.35
2023-02-11T11:31:37.034Z,8.39
2023-02-11T11:34:20.967Z,8.41
2023-02-11T11:36:48.154Z,7.90
2023-02-11T11:39:22.178Z,7.82
2023-02-11T11:41:57.501Z,7.77
2023-02-11T11:44:34.585Z,7.81
2023-02-11T11:47:13.438Z,7.90
2023-02-11T11:50:03.378Z,8.01
2023-02-11T11:52:48.649Z,7.66
2023-02-11T11:55:22.810Z,7.73
2023-02-11T11:57:51.104Z,7.79
2023-02-11T12:00:17.873Z,7.90
2023-02-11T12:02:47.382Z,7.84
2023-02-11T12:05:25.296Z,7.96
2023-02-11T12:08:03.992Z,8.12
2023-02-11T12:10:47.342Z,8.17
2023-02-11T12:13:13.743Z,8.32
2023-02-11T12:15:59.202Z,8.67
2023-02-11T12:18:47.284Z,8.80
2023-02-11T12:21:39.197Z,8.65
2023-02-11T12:24:36.068Z,8.30
2023-02-11T12:27:12.625Z,8.18
2023-02-11T12:29:54.967Z,8.12
2023-02-11T12:32:38.178Z,8.17
2023-02-11T12:35:07.464Z,8.55
2023-02-11T12:37:55.821Z,8.71
2023-02-11T12:40:45.634Z,8.66
2023-02-11T12:43:21.198Z,8.74
2023-02-11T12:46:02.410Z,8.81
2023-02-11T12:48:41.044Z,9.03
2023-02-11T12:51:36.787Z,9.50
2023-02-11T12:54:18.720Z,9.12
2023-02-11T12:57:16.654Z,9.33
2023-02-11T12:59:58.934Z,9.97
2023-02-11T13:02:25.421Z,9.58
2023-02-11T13:05:00.993Z,9.93
2023-02-11T13:07:27.440Z,9.47
2023-02-11T13:10:16.836Z,9.47
2023-02-11T13:13:07.467Z,7.38
2023-02-11T13:15:33.966Z,7.56
2023-02-11T13:18:06.858Z,7.74
2023-02-11T13:20:45.299Z,8.03
2023-02-11T13:23:23.884Z,7.28
2023-02-11T13:25:57.101Z,7.34
2023-02-11T13:28:29.128Z,7.68
2023-02-11T13:31:03.021Z,7.63
2023-02-11T13:33:39.399Z,7.02
2023-02-11T13:36:05.869Z,6.96
2023-02-11T13:38:33.062Z,6.99
2023-02-11T13:41:16.656Z,6.89
2023-02-11T13:43:44.550Z,6.70
2023-02-11T13:46:13.353Z,7.28
2023-02-11T13:48:47.941Z,7.29
2023-02-11T13:51:17.947Z,7.21
2023-02-11T13:53:54.700Z,7.03
2023-02-11T13:56:39.147Z,6.90
2023-02-11T13:59:26.307Z,7.07
2023-02-11T14:02:17.471Z,7.15
2023-02-11T14:05:25.849Z,6.73
2023-02-11T14:08:39.592Z,6.69
2023-02-11T14:11:36.922Z,6.38
2023-02-11T14:14:28.533Z,6.85
2023-02-11T14:17:07.230Z,6.63
2023-02-11T14:19:45.193Z,6.74
2023-02-11T14:22:18.322Z,6.11
2023-02-11T14:24:53.974Z,6.69
2023-02-11T14:27:27.233Z,6.91
2023-02-11T14:30:02.270Z,6.68
2023-02-11T14:32:34.816Z,7.40
2023-02-11T14:35:22.599Z,7.39
2023-02-11T14:37:57.894Z,7.10
2023-02-11T14:40:38.991Z,6.73
2023-02-11T14:43:29.707Z,6.47
2023-02-11T14:45:58.355Z,6.25
2023-02-11T14:48:31.664Z,6.32
2023-02-11T14:51:13.344Z,6.08
2023-02-11T14:53:44.292Z,6.05
2023-02-11T14:56:24.515Z,6.39
2023-02-11T14:58:54.489Z,6.51
2023-02-11T15:01:36.624Z,6.45
2023-02-11T15:04:05.612Z,6.35
2023-02-11T15:06:45.079Z,6.47
2023-02-11T15:09:19.101Z,6.12
2023-02-11T15:11:48.869Z,6.28
2023-02-11T15:14:22.608Z,6.17
2023-02-11T15:16:51.033Z,6.20
2023-02-11T15:19:28.740Z,6.28
2023-02-11T15:21:56.720Z,6.15
2023-02-11T15:24:35.306Z,6.34
2023-02-11T15:27:14.525Z,6.16
2023-02-11T15:29:45.297Z,6.07
2023-02-11T15:32:29.829Z,6.17
2023-02-11T15:34:58.082Z,6.26
2023-02-11T15:37:29.829Z,6.17
2023-02-11T15:40:10.408Z,6.01
2023-02-11T15:42:51.822Z,6.12
2023-02-11T15:45:29.524Z,6.23
2023-02-11T15:48:17.564Z,6.09
2023-02-11T15:50:51.722Z,6.10
2023-02-11T15:53:38.007Z,6.11
2023-02-11T15:56:12.534Z,6.04
2023-02-11T15:58:40.942Z,6.12
2023-02-11T16:01:08.818Z,6.06
2023-02-11T16:03:35.717Z,6.03
2023-02-11T16:06:25.822Z,6.13
2023-02-11T16:09:25.935Z,6.09
2023-02-11T16:11:53.593Z,5.96
2023-02-11T16:14:42.144Z,5.92
2023-02-11T16:17:13.217Z,5.97
2023-02-11T16:19:48.378Z,5.96
2023-02-11T16:22:27.512Z,5.89
2023-02-11T16:24:58.007Z,5.86
2023-02-11T16:27:30.254Z,5.90
2023-02-11T16:29:58.049Z,5.94
2023-02-11T16:32:26.932Z,5.91
2023-02-11T16:34:55.321Z,5.79
2023-02-11T16:37:21.820Z,5.82
2023-02-11T16:39:48.385Z,5.70
2023-02-11T16:42:14.959Z,5.78
2023-02-11T16:44:41.453Z,5.83
2023-02-11T16:47:23.594Z,5.73
2023-02-11T16:49:50.546Z,5.70
2023-02-11T16:52:18.767Z,5.66
2023-02-11T16:54:45.350Z,5.65
2023-02-11T16:57:17.955Z,5.63
2023-02-11T16:59:45.157Z,5.59
2023-02-11T17:02:23.786Z,5.62
2023-02-11T17:04:53.276Z,5.55
2023-02-11T17:07:19.841Z,5.36
2023-02-11T17:09:46.437Z,5.56
2023-02-11T17:12:12.979Z,5.53
2023-02-11T17:14:39.538Z,5.52
2023-02-11T17:17:06.353Z,5.42
2023-02-11T17:19:32.940Z,5.35
2023-02-11T17:21:59.407Z,5.34
2023-02-11T17:24:25.934Z,5.54
2023-02-11T17:26:52.458Z,5.48
2023-02-11T17:29:22.199Z,5.48
2023-02-11T17:31:49.438Z,5.47
2023-02-11T17:34:16.857Z,5.47
2023-02-11T17:36:43.398Z,5.41
2023-02-11T17:39:10.547Z,5.34
2023-02-11T17:41:38.145Z,5.34
2023-02-11T17:44:05.976Z,5.25
2023-02-11T17:46:34.528Z,5.29
2023-02-11T17:49:02.055Z,5.28
2023-02-11T17:51:34.396Z,5.23
2023-02-11T17:54:03.556Z,5.30
2023-02-11T17:56:32.759Z,5.30
2023-02-11T17:58:59.287Z,5.24
2023-02-11T18:01:30.397Z,5.16
2023-02-11T18:04:18.563Z,5.29
2023-02-11T18:07:03.728Z,5.28
2023-02-11T18:09:50.595Z,5.14
2023-02-11T18:12:37.443Z,5.15
2023-02-11T18:15:24.460Z,5.24
2023-02-11T18:18:11.350Z,5.28
2023-02-11T18:20:59.929Z,5.28
2023-02-11T18:23:47.596Z,5.17
2023-02-11T18:26:34.998Z,5.27
2023-02-11T18:29:21.862Z,5.25
2023-02-11T18:32:08.708Z,5.25
2023-02-11T18:34:55.593Z,5.20
2023-02-11T18:37:42.958Z,5.13
2023-02-11T18:40:29.806Z,5.16
2023-02-11T18:43:17.349Z,5.19
2023-02-11T18:46:11.918Z,5.11
2023-02-11T18:48:58.786Z,5.08
2023-02-11T18:51:45.832Z,5.32
2023-02-11T18:54:32.657Z,5.31
2023-02-11T18:57:19.491Z,5.27
2023-02-11T19:00:07.644Z,5.34
2023-02-11T19:02:54.453Z,5.29
2023-02-11T19:05:47.082Z,5.31
2023-02-11T19:08:33.900Z,5.33
2023-02-11T19:11:41.316Z,5.28
2023-02-11T19:14:31.383Z,5.34
2023-02-11T19:17:18.185Z,5.24
2023-02-11T19:20:05.986Z,5.29
2023-02-11T19:22:52.818Z,5.30
2023-02-11T19:25:46.652Z,5.32
2023-02-11T19:28:35.166Z,5.29
2023-02-11T19:31:22.146Z,5.28
2023-02-11T19:34:10.981Z,5.28
2023-02-11T19:37:01.600Z,5.27
2023-02-11T19:39:48.603Z,5.23
2023-02-11T19:42:35.459Z,5.22
2023-02-11T19:45:22.525Z,5.07
2023-02-11T19:48:12.785Z,5.08
2023-02-11T19:51:07.294Z,5.15
2023-02-11T19:53:55.263Z,5.29
2023-02-11T19:56:42.141Z,5.32
2023-02-11T19:59:29.027Z,5.33
2023-02-11T20:02:15.840Z,5.31
2023-02-11T20:05:03.905Z,5.28
2023-02-11T20:07:50.735Z,5.32
2023-02-11T20:10:37.556Z,5.29
2023-02-11T20:13:27.891Z,5.20
2023-02-11T20:16:17.618Z,5.26
2023-02-11T20:19:04.556Z,5.26
2023-02-11T20:21:53.533Z,5.27
2023-02-11T20:24:40.585Z,5.27
2023-02-11T20:27:29.363Z,5.19
2023-02-11T20:30:16.618Z,5.27
2023-02-11T20:33:03.485Z,5.24
2023-02-11T20:36:08.167Z,5.20
2023-02-11T20:38:55.165Z,5.24
2023-02-11T20:41:41.950Z,5.21
2023-02-11T20:44:28.833Z,5.25
2023-02-11T20:47:15.734Z,5.18
2023-02-11T20:50:02.599Z,5.13
2023-02-11T20:52:49.419Z,5.14
2023-02-11T20:55:38.189Z,4.95
2023-02-11T20:58:25.101Z,4.92
2023-02-11T21:01:21.109Z,5.04
2023-02-11T21:04:12.571Z,5.12
2023-02-11T21:07:01.664Z,5.05
2023-02-11T21:09:48.478Z,5.08
2023-02-11T21:12:35.352Z,5.20
2023-02-11T21:15:24.052Z,5.16
2023-02-11T21:18:11.368Z,5.06
2023-02-11T21:20:58.773Z,5.17
2023-02-11T21:23:46.090Z,5.02
2023-02-11T21:26:35.284Z,4.89
2023-02-11T21:29:22.291Z,4.88
